Pagina principale
METAR-TAF:

METAR-TAF

Aeroporti :

Montauk, New York, Stati Uniti

latitudine: 41-04-23N, longitudine: 071-55-24W, altezza: 2 m

Osservazione

Il bollettino è stato emesso 11 minuti fa, alle 14:54 UTC
Vento 6 kt da direzioni variabili
Temperature 17°C
Umidità 77%
Pressione 1020 hPa

METAR: KMTP 151454Z AUTO VRB06KT 17/13 A3013 RMK AO1 SLP203 T01720128 58019

Ora: 11:05 (15:05 UTC)


TAF: mancante

Osservazioni e previsioni meteorologiche di più di 4000 aeroporti (messaggi METAR e TAF).

Le stazioni disponibili sono rappresentate dai dischi gialli e rossi sulla carta.

Puntare il mouse per vedere il nome della stazione.

Clicca sopra per visualizzare le osservazioni e previsioni meteorologiche.

Per cambiare la mappa : fare clic sui pulsanti verdi con una croce nera per ingrandire, il pulsante verde con un trattino per diminuire, o sulla freccia verde per le mappe adiacenti.


METAR-TAF: